createdAt,value
2022-11-21T00:02:02.056Z,100092.95
2022-11-21T00:04:31.053Z,100088.69
2022-11-21T00:06:58.909Z,100085.34
2022-11-21T00:09:26.818Z,100087.19
2022-11-21T00:11:54.604Z,100083.70
2022-11-21T00:14:22.412Z,100082.16
2022-11-21T00:16:57.194Z,100081.08
2022-11-21T00:19:25.907Z,100080.79
2022-11-21T00:21:55.962Z,100079.84
2022-11-21T00:24:23.756Z,100086.16
2022-11-21T00:26:51.579Z,100087.77
2022-11-21T00:29:20.892Z,100088.80
2022-11-21T00:31:49.956Z,100081.80
2022-11-21T00:34:17.907Z,100082.86
2022-11-21T00:36:45.722Z,100083.19
2022-11-21T00:39:13.487Z,100082.86
2022-11-21T00:41:42.151Z,100081.84
2022-11-21T00:44:10.184Z,100082.13
2022-11-21T00:46:38.252Z,100083.71
2022-11-21T00:49:06.063Z,100085.28
2022-11-21T00:51:33.986Z,100090.91
2022-11-21T00:54:02.056Z,100094.42
2022-11-21T00:56:29.833Z,100095.90
2022-11-21T00:58:57.684Z,100091.23
2022-11-21T01:01:25.594Z,100085.86
2022-11-21T01:03:53.412Z,100089.23
2022-11-21T01:06:21.181Z,100089.76
2022-11-21T01:08:48.948Z,100082.14
2022-11-21T01:11:20.190Z,100085.73
2022-11-21T01:13:49.004Z,100090.23
2022-11-21T01:16:20.417Z,100078.70
2022-11-21T01:18:49.109Z,100082.63
2022-11-21T01:21:23.631Z,100081.48
2022-11-21T01:23:51.930Z,100081.26
2022-11-21T01:26:22.932Z,100074.23
2022-11-21T01:28:51.220Z,100077.98
2022-11-21T01:31:20.669Z,100074.66
2022-11-21T01:33:49.572Z,100075.99
2022-11-21T01:36:21.762Z,100070.98
2022-11-21T01:38:52.962Z,100071.50
2022-11-21T01:41:28.470Z,100068.46
2022-11-21T01:43:56.400Z,100067.27
2022-11-21T01:46:25.215Z,100068.17
2022-11-21T01:48:59.681Z,100068.07
2022-11-21T01:51:48.344Z,100069.59
2022-11-21T01:54:25.046Z,100065.82
2022-11-21T01:57:08.362Z,100070.13
2022-11-21T01:59:48.363Z,100067.20
2022-11-21T02:02:20.841Z,100064.67
2022-11-21T02:04:50.172Z,100067.48
2022-11-21T02:07:21.604Z,100066.21
2022-11-21T02:09:57.917Z,100070.84
2022-11-21T02:12:39.837Z,100065.35
2022-11-21T02:15:08.398Z,100058.95
2022-11-21T02:17:36.307Z,100053.23
2022-11-21T02:20:10.370Z,100052.85
2022-11-21T02:22:49.352Z,100054.85
2022-11-21T02:25:46.639Z,100051.98
2022-11-21T02:28:17.061Z,100050.17
2022-11-21T02:30:45.344Z,100048.71
2022-11-21T02:33:13.701Z,100045.66
2022-11-21T02:35:42.549Z,100037.04
2022-11-21T02:38:33.468Z,100037.77
2022-11-21T02:41:15.681Z,100032.49
2022-11-21T02:43:55.599Z,100025.86
2022-11-21T02:46:23.554Z,100021.15
2022-11-21T02:48:51.314Z,100013.42
2022-11-21T02:51:19.188Z,100008.06
2022-11-21T02:53:47.077Z,100009.48
2022-11-21T02:56:15.032Z,100007.02
2022-11-21T02:58:43.520Z,100003.18
2022-11-21T03:01:11.518Z,99995.76
2022-11-21T03:03:39.422Z,99993.77
2022-11-21T03:06:07.291Z,99991.22
2022-11-21T03:08:35.147Z,99986.76
2022-11-21T03:11:03.017Z,99982.40
2022-11-21T03:13:30.904Z,99976.57
2022-11-21T03:15:59.713Z,99978.34
2022-11-21T03:18:27.690Z,99979.02
2022-11-21T03:20:55.539Z,99972.38
2022-11-21T03:23:23.399Z,99970.10
2022-11-21T03:25:51.217Z,99966.52
2022-11-21T03:28:19.497Z,99963.77
2022-11-21T03:30:47.432Z,99960.67
2022-11-21T03:33:15.257Z,99960.40
2022-11-21T03:35:43.031Z,99959.40
2022-11-21T03:38:10.763Z,99961.34
2022-11-21T03:40:38.645Z,99959.30
2022-11-21T03:43:07.789Z,99955.35
2022-11-21T03:45:35.507Z,99955.95
2022-11-21T03:48:03.500Z,99950.92
2022-11-21T03:50:31.230Z,99951.73
2022-11-21T03:52:58.923Z,99946.36
2022-11-21T03:55:27.302Z,99948.95
2022-11-21T03:57:55.007Z,99939.33
2022-11-21T04:00:23.614Z,99933.06
2022-11-21T04:02:51.400Z,99934.23
2022-11-21T04:05:19.213Z,99929.27
2022-11-21T04:07:47.007Z,99927.28
2022-11-21T04:10:15.071Z,99926.23
2022-11-21T04:12:45.232Z,99928.07
2022-11-21T04:15:14.009Z,99921.54
2022-11-21T04:17:42.876Z,99920.65
2022-11-21T04:20:11.262Z,99916.56
2022-11-21T04:22:39.073Z,99915.11
2022-11-21T04:25:07.465Z,99917.20
2022-11-21T04:27:35.204Z,99910.19
2022-11-21T04:30:03.290Z,99905.86
2022-11-21T04:32:31.007Z,99899.34
2022-11-21T04:34:58.665Z,99895.73
2022-11-21T04:37:26.412Z,99889.55
2022-11-21T04:39:56.633Z,99885.86
2022-11-21T04:42:24.596Z,99883.65
2022-11-21T04:44:52.296Z,99882.90
2022-11-21T04:47:20.009Z,99874.39
2022-11-21T04:49:47.890Z,99868.41
2022-11-21T04:52:15.617Z,99872.30
2022-11-21T04:54:43.454Z,99872.36
2022-11-21T04:57:11.228Z,99869.39
2022-11-21T04:59:38.928Z,99864.33
2022-11-21T05:02:06.588Z,99858.83
2022-11-21T05:04:34.950Z,99859.44
2022-11-21T05:07:02.764Z,99859.27
2022-11-21T05:09:30.488Z,99854.05
2022-11-21T05:12:16.656Z,99854.57
2022-11-21T05:14:44.579Z,99857.98
2022-11-21T05:17:12.369Z,99854.42
2022-11-21T05:19:40.157Z,99850.48
2022-11-21T05:22:08.238Z,99854.00
2022-11-21T05:24:36.377Z,99852.66
2022-11-21T05:27:05.543Z,99842.14
2022-11-21T05:29:33.692Z,99837.20
2022-11-21T05:32:01.573Z,99840.23
2022-11-21T05:34:29.936Z,99833.64
2022-11-21T05:37:00.692Z,99832.17
2022-11-21T05:39:29.118Z,99825.65
2022-11-21T05:42:02.504Z,99827.41
2022-11-21T05:44:31.280Z,99813.25
2022-11-21T05:46:59.564Z,99817.72
2022-11-21T05:49:27.772Z,99818.68
2022-11-21T05:51:55.762Z,99818.65
2022-11-21T05:54:24.368Z,99814.20
2022-11-21T05:56:52.309Z,99813.08
2022-11-21T05:59:20.760Z,99813.90
2022-11-21T06:02:07.774Z,99816.02
2022-11-21T06:04:35.825Z,99814.42
2022-11-21T06:07:05.900Z,99811.54
2022-11-21T06:09:33.924Z,99813.41
2022-11-21T06:12:01.792Z,99812.06
2022-11-21T06:14:29.737Z,99806.92
2022-11-21T06:16:57.861Z,99809.42
2022-11-21T06:19:25.788Z,99807.93
2022-11-21T06:21:53.544Z,99804.85
2022-11-21T06:24:22.497Z,99804.92
2022-11-21T06:26:50.436Z,99809.46
2022-11-21T06:29:18.252Z,99809.67
2022-11-21T06:31:45.951Z,99801.85
2022-11-21T06:34:13.752Z,99801.91
2022-11-21T06:36:41.568Z,99802.40
2022-11-21T06:39:09.352Z,99801.27
2022-11-21T06:41:37.036Z,99800.48
2022-11-21T06:44:04.957Z,99802.23
2022-11-21T06:46:32.689Z,99801.48
2022-11-21T06:49:00.623Z,99799.10
2022-11-21T06:51:28.533Z,99797.55
2022-11-21T06:53:59.494Z,99794.91
2022-11-21T06:56:30.051Z,99796.39
2022-11-21T06:58:58.749Z,99792.25
2022-11-21T07:01:26.870Z,99787.34
2022-11-21T07:03:55.118Z,99787.34
2022-11-21T07:06:24.771Z,99790.33
2022-11-21T07:09:25.205Z,99788.06
2022-11-21T07:11:46.995Z,99788.16
2022-11-21T07:14:15.235Z,99788.36
2022-11-21T07:16:42.904Z,99791.34
2022-11-21T07:19:10.755Z,99789.41
2022-11-21T07:21:38.697Z,99788.95
2022-11-21T07:24:06.633Z,99784.43
2022-11-21T07:26:34.372Z,99783.59
2022-11-21T07:29:02.469Z,99781.42
2022-11-21T07:31:30.223Z,99779.05
2022-11-21T07:33:58.239Z,99773.13
2022-11-21T07:36:26.149Z,99774.48
2022-11-21T07:38:53.879Z,99775.02
2022-11-21T07:41:21.647Z,99778.41
2022-11-21T07:43:49.419Z,99773.79
2022-11-21T07:46:19.586Z,99771.53
2022-11-21T07:48:47.629Z,99771.73
2022-11-21T07:51:16.181Z,99768.67
2022-11-21T07:53:44.208Z,99772.42
2022-11-21T07:56:15.380Z,99771.15
2022-11-21T07:58:43.498Z,99773.78
2022-11-21T08:01:11.553Z,99771.59
2022-11-21T08:03:39.435Z,99772.34
2022-11-21T08:06:07.824Z,99772.31
2022-11-21T08:08:35.726Z,99767.92
2022-11-21T08:11:07.652Z,99767.16
2022-11-21T08:13:35.548Z,99767.09
2022-11-21T08:16:04.390Z,99767.58
2022-11-21T08:18:34.106Z,99764.69
2022-11-21T08:21:03.647Z,99763.20
2022-11-21T08:23:32.458Z,99761.98
2022-11-21T08:26:00.459Z,99760.32
2022-11-21T08:28:28.357Z,99768.58
2022-11-21T08:30:56.314Z,99767.41
2022-11-21T08:33:24.137Z,99763.55
2022-11-21T08:35:51.969Z,99759.81
2022-11-21T08:38:19.939Z,99760.03
2022-11-21T08:40:47.668Z,99762.36
2022-11-21T08:43:15.516Z,99765.02
2022-11-21T08:45:43.788Z,99763.14
2022-11-21T08:48:11.915Z,99761.77
2022-11-21T08:50:39.995Z,99766.95
2022-11-21T08:53:07.731Z,99765.50
2022-11-21T08:55:35.745Z,99766.29
2022-11-21T08:58:03.818Z,99762.68
2022-11-21T09:00:31.598Z,99761.45
2022-11-21T09:02:59.383Z,99761.73
2022-11-21T09:05:27.290Z,99765.06
2022-11-21T09:07:58.483Z,99760.98
2022-11-21T09:10:27.138Z,99763.96
2022-11-21T09:12:59.549Z,99772.30
2022-11-21T09:15:45.998Z,99767.63
2022-11-21T09:18:14.552Z,99767.45
2022-11-21T09:20:44.883Z,99770.83
2022-11-21T09:23:16.752Z,99767.30
2022-11-21T09:25:45.400Z,99765.55
2022-11-21T09:28:14.030Z,99760.45
2022-11-21T09:30:42.468Z,99761.95
2022-11-21T09:33:13.181Z,99763.59
2022-11-21T09:35:41.205Z,99762.27
2022-11-21T09:38:09.742Z,99758.56
2022-11-21T09:40:44.823Z,99760.42
2022-11-21T09:43:41.710Z,99764.83
2022-11-21T09:46:13.049Z,99761.42
2022-11-21T09:49:05.099Z,99760.47
2022-11-21T09:51:37.547Z,99756.70
2022-11-21T09:54:17.466Z,99755.27
2022-11-21T09:56:47.699Z,99756.77
2022-11-21T09:59:35.542Z,99757.65
2022-11-21T10:02:15.891Z,99754.51
2022-11-21T10:04:49.012Z,99751.08
2022-11-21T10:07:19.455Z,99753.12
2022-11-21T10:09:59.475Z,99754.61
2022-11-21T10:12:59.132Z,99759.00
2022-11-21T10:15:26.963Z,99758.93
2022-11-21T10:18:24.306Z,99759.12
2022-11-21T10:21:13.719Z,99754.60
2022-11-21T10:24:26.884Z,99757.39
2022-11-21T10:27:00.934Z,99763.18
2022-11-21T10:29:35.757Z,99760.59
2022-11-21T10:32:22.503Z,99760.16
2022-11-21T10:34:53.259Z,99766.08
2022-11-21T10:37:33.096Z,99766.77
2022-11-21T10:40:28.681Z,99758.77
2022-11-21T10:43:22.093Z,99763.95
2022-11-21T10:45:50.688Z,99767.03
2022-11-21T10:48:19.125Z,99767.17
2022-11-21T10:51:06.200Z,99764.05
2022-11-21T10:53:52.799Z,99765.94
2022-11-21T10:56:23.275Z,99764.47
2022-11-21T10:58:53.740Z,99764.96
2022-11-21T11:01:34.152Z,99763.81
2022-11-21T11:07:20.384Z,99764.27
2022-11-21T11:09:48.575Z,99766.39
2022-11-21T11:12:50.353Z,99765.02
2022-11-21T11:15:24.534Z,99761.48
2022-11-21T11:17:59.156Z,99762.60
2022-11-21T11:20:41.731Z,99761.02
2022-11-21T11:23:27.941Z,99761.86
2022-11-21T11:26:39.297Z,99766.00
2022-11-21T11:29:17.804Z,99767.15
2022-11-21T11:31:55.519Z,99770.91
2022-11-21T11:34:26.923Z,99769.81
2022-11-21T11:37:11.126Z,99771.10
2022-11-21T11:40:03.773Z,99770.61
2022-11-21T11:43:12.407Z,99777.34
2022-11-21T11:46:10.457Z,99780.48
2022-11-21T11:49:11.030Z,99779.02
2022-11-21T11:51:41.433Z,99787.14
2022-11-21T11:54:23.609Z,99787.98
2022-11-21T11:56:51.816Z,99788.66
2022-11-21T11:59:35.172Z,99791.55
2022-11-21T12:02:24.623Z,99797.38
2022-11-21T12:05:20.778Z,99800.11
2022-11-21T12:08:40.079Z,99804.85
2022-11-21T12:11:15.726Z,99808.88
2022-11-21T12:13:44.282Z,99807.23
2022-11-21T12:16:16.377Z,99809.84
2022-11-21T12:18:54.130Z,99814.43
2022-11-21T12:21:23.648Z,99814.70
2022-11-21T12:23:56.898Z,99816.73
2022-11-21T12:26:38.105Z,99818.40
2022-11-21T12:29:11.067Z,99819.26
2022-11-21T12:31:47.249Z,99823.35
2022-11-21T12:34:36.715Z,99827.17
2022-11-21T12:37:10.233Z,99823.09
2022-11-21T12:40:08.967Z,99825.84
2022-11-21T12:42:50.802Z,99827.38
2022-11-21T12:45:18.792Z,99825.27
2022-11-21T12:48:29.748Z,99822.96
2022-11-21T12:51:34.586Z,99823.46
2022-11-21T12:54:30.602Z,99828.38
2022-11-21T12:57:14.025Z,99826.42
2022-11-21T12:59:52.294Z,99831.05
2022-11-21T13:02:57.697Z,99835.78
2022-11-21T13:05:30.575Z,99839.65
2022-11-21T13:08:03.782Z,99842.57
2022-11-21T13:10:32.435Z,99841.84
2022-11-21T13:13:20.371Z,99846.11
2022-11-21T13:16:10.635Z,99848.11
2022-11-21T13:18:48.943Z,99850.44
2022-11-21T13:21:41.736Z,99849.18
2022-11-21T13:24:10.296Z,99852.41
2022-11-21T13:26:38.561Z,99859.89
2022-11-21T13:29:10.245Z,99861.75
2022-11-21T13:31:40.877Z,99858.88
2022-11-21T13:34:32.304Z,99867.98
2022-11-21T13:37:00.469Z,99873.40
2022-11-21T13:39:31.606Z,99873.67
2022-11-21T13:42:23.068Z,99877.83
2022-11-21T13:44:51.389Z,99873.50
2022-11-21T13:47:26.405Z,99869.89
2022-11-21T13:50:25.293Z,99876.23
2022-11-21T13:53:02.757Z,99874.90
2022-11-21T13:55:47.044Z,99881.56
2022-11-21T13:58:29.800Z,99885.92
2022-11-21T14:01:19.906Z,99885.27
2022-11-21T14:04:21.301Z,99887.71
2022-11-21T14:06:49.664Z,99892.27
2022-11-21T14:09:49.329Z,99893.60
2022-11-21T14:12:33.864Z,99897.27
2022-11-21T14:15:03.924Z,99905.23
2022-11-21T14:17:47.304Z,99908.31
2022-11-21T14:20:21.163Z,99912.36
2022-11-21T14:22:59.050Z,99918.77
2022-11-21T14:26:11.999Z,99919.67
2022-11-21T14:28:39.817Z,99924.79
2022-11-21T14:31:10.707Z,99931.61
2022-11-21T14:33:41.330Z,99933.60
2022-11-21T14:36:22.335Z,99938.84
2022-11-21T14:39:35.214Z,99936.64
2022-11-21T14:41:52.702Z,99942.17
2022-11-21T14:44:22.023Z,99944.24
2022-11-21T14:46:51.798Z,99948.20
2022-11-21T14:49:22.405Z,99954.91
2022-11-21T14:51:50.440Z,99956.66
2022-11-21T14:54:25.998Z,99955.53
2022-11-21T14:57:05.172Z,99955.07
2022-11-21T14:59:41.974Z,99956.45
2022-11-21T15:02:19.872Z,99960.27
2022-11-21T15:04:54.053Z,99959.06
2022-11-21T15:07:36.287Z,99959.83
2022-11-21T15:13:16.156Z,99970.35
2022-11-21T15:15:51.469Z,99974.95
2022-11-21T15:18:27.786Z,99975.84
2022-11-21T15:21:00.447Z,99972.39
2022-11-21T15:23:34.290Z,99977.96
2022-11-21T15:26:02.621Z,99978.30
2022-11-21T15:28:31.910Z,99983.11
2022-11-21T15:31:19.924Z,99980.48
2022-11-21T15:34:19.637Z,99977.90
2022-11-21T15:37:03.879Z,99977.54
2022-11-21T15:39:33.543Z,99971.98
2022-11-21T15:42:32.644Z,99970.20
2022-11-21T15:45:03.568Z,99960.74
2022-11-21T15:47:32.034Z,99962.45
2022-11-21T15:50:00.356Z,99959.27
2022-11-21T15:52:29.612Z,99960.12
2022-11-21T15:55:01.472Z,99959.20
2022-11-21T15:57:29.636Z,99963.37
2022-11-21T15:59:57.873Z,99961.69
2022-11-21T16:02:28.554Z,99964.39
2022-11-21T16:04:56.688Z,99964.80
2022-11-21T16:07:24.821Z,99968.89
2022-11-21T16:09:53.154Z,99964.17
2022-11-21T16:12:21.598Z,99960.38
2022-11-21T16:14:49.653Z,99955.35
2022-11-21T16:17:17.859Z,99953.11
2022-11-21T16:19:46.144Z,99955.89
2022-11-21T16:22:16.948Z,99956.02
2022-11-21T16:24:45.072Z,99953.67
2022-11-21T16:27:13.749Z,99952.16
2022-11-21T16:29:47.710Z,99951.91
2022-11-21T16:32:16.931Z,99953.09
2022-11-21T16:34:45.353Z,99954.35
2022-11-21T16:37:14.477Z,99953.80
2022-11-21T16:39:42.459Z,99954.98
2022-11-21T16:42:11.633Z,99956.23
2022-11-21T16:44:40.155Z,99950.75
2022-11-21T16:47:08.806Z,99958.02
2022-11-21T16:49:43.059Z,99963.05
2022-11-21T16:52:11.808Z,99960.45
2022-11-21T16:54:40.938Z,99959.05
2022-11-21T16:57:10.164Z,99958.90
2022-11-21T16:59:38.485Z,99953.70
2022-11-21T17:02:07.497Z,99954.18
2022-11-21T17:04:39.790Z,99954.77
2022-11-21T17:07:08.241Z,99956.23
2022-11-21T17:09:36.676Z,99956.83
2022-11-21T17:12:05.160Z,99966.89
2022-11-21T17:14:34.149Z,99964.56
2022-11-21T17:17:02.683Z,99967.05
2022-11-21T17:19:31.033Z,99972.00
2022-11-21T17:22:00.381Z,99967.77
2022-11-21T17:24:29.251Z,99966.99
2022-11-21T17:27:01.172Z,99967.58
2022-11-21T17:29:31.414Z,99972.10
2022-11-21T17:31:59.906Z,99968.82
2022-11-21T17:34:33.067Z,99966.61
2022-11-21T17:37:02.071Z,99974.63
2022-11-21T17:39:30.575Z,99977.52
2022-11-21T17:42:00.154Z,99980.05
2022-11-21T17:44:28.991Z,99988.76
2022-11-21T17:46:59.530Z,99989.75
2022-11-21T17:49:30.669Z,99991.20
2022-11-21T17:51:59.484Z,99994.40
2022-11-21T17:54:28.039Z,99994.91
2022-11-21T17:56:57.243Z,99996.16
2022-11-21T17:59:30.723Z,99992.66
2022-11-21T18:02:00.810Z,99992.75
2022-11-21T18:04:34.890Z,99992.98
2022-11-21T18:07:03.921Z,99997.61
2022-11-21T18:09:32.938Z,99996.67
2022-11-21T18:12:01.589Z,99996.17
2022-11-21T18:14:30.014Z,99996.92
2022-11-21T18:16:58.041Z,99995.95
2022-11-21T18:19:26.978Z,99991.43
2022-11-21T18:21:55.880Z,99987.83
2022-11-21T18:24:24.272Z,99990.14
2022-11-21T18:26:53.280Z,99993.34
2022-11-21T18:29:38.463Z,99992.33
2022-11-21T18:32:08.440Z,99990.57
2022-11-21T18:34:36.538Z,99990.50
2022-11-21T18:37:07.085Z,99990.34
2022-11-21T18:39:36.980Z,99989.80
2022-11-21T18:42:06.605Z,99988.86
2022-11-21T18:44:35.489Z,99992.73
2022-11-21T18:47:19.407Z,100002.34
2022-11-21T18:49:48.851Z,100001.01
2022-11-21T18:52:16.930Z,100012.40
2022-11-21T18:54:45.391Z,100011.84
2022-11-21T18:57:13.686Z,100010.45
2022-11-21T18:59:42.232Z,100011.25
2022-11-21T19:02:10.887Z,100011.04
2022-11-21T19:04:40.126Z,100019.27
2022-11-21T19:07:08.760Z,100019.81
2022-11-21T19:09:38.412Z,100016.85
2022-11-21T19:12:07.033Z,100018.50
2022-11-21T19:14:35.988Z,100024.64
2022-11-21T19:17:04.517Z,100028.65
2022-11-21T19:19:34.720Z,100025.14
2022-11-21T19:22:06.164Z,100023.73
2022-11-21T19:24:34.709Z,100019.45
2022-11-21T19:27:03.937Z,100017.52
2022-11-21T19:29:33.514Z,100019.24
2022-11-21T19:32:02.230Z,100020.52
2022-11-21T19:34:31.063Z,100013.20
2022-11-21T19:36:59.735Z,100014.41
2022-11-21T19:39:29.913Z,100010.16
2022-11-21T19:41:59.528Z,100010.70
2022-11-21T19:44:28.781Z,100010.45
2022-11-21T19:46:56.769Z,100009.13
2022-11-21T19:49:25.183Z,100006.75
2022-11-21T19:51:55.239Z,99999.90
2022-11-21T19:54:23.494Z,99994.06
2022-11-21T19:56:53.045Z,99994.28
2022-11-21T19:59:22.717Z,99991.70
2022-11-21T20:01:53.283Z,99995.48
2022-11-21T20:04:22.529Z,99988.03
2022-11-21T20:06:51.069Z,99988.25
2022-11-21T20:09:24.606Z,99986.52
2022-11-21T20:11:54.197Z,99988.48
2022-11-21T20:14:23.186Z,99988.04
2022-11-21T20:16:53.363Z,99984.94
2022-11-21T20:19:24.785Z,99982.33
2022-11-21T20:21:55.154Z,99983.48
2022-11-21T20:24:23.346Z,99985.37
2022-11-21T20:26:54.150Z,99980.44
2022-11-21T20:29:22.615Z,99979.58
2022-11-21T20:31:51.192Z,99985.65
2022-11-21T20:34:19.575Z,99992.37
2022-11-21T20:36:48.085Z,99996.67
2022-11-21T20:39:18.375Z,99994.38
2022-11-21T20:41:47.194Z,99992.77
2022-11-21T20:45:20.166Z,99998.58
2022-11-21T20:47:12.442Z,100001.23
2022-11-21T20:49:40.794Z,100007.58
2022-11-21T20:54:58.510Z,100006.73
2022-11-21T20:57:27.858Z,100009.04
2022-11-21T20:59:57.073Z,100011.76
2022-11-21T21:02:26.588Z,100017.64
2022-11-21T21:04:55.254Z,100010.87
2022-11-21T21:07:24.006Z,100004.93
2022-11-21T21:09:53.673Z,99992.40
2022-11-21T21:12:24.086Z,99991.34
2022-11-21T21:14:52.011Z,99993.38
2022-11-21T21:17:20.618Z,99993.61
2022-11-21T21:19:49.073Z,99995.35
2022-11-21T21:22:17.584Z,99997.30
2022-11-21T21:24:46.222Z,99988.96
2022-11-21T21:27:14.858Z,99983.35
2022-11-21T21:29:43.554Z,99980.83
2022-11-21T21:32:11.802Z,99975.63
2022-11-21T21:34:41.284Z,99970.36
2022-11-21T21:37:11.001Z,99970.08
2022-11-21T21:39:39.630Z,99963.26
2022-11-21T21:42:08.061Z,99962.76
2022-11-21T21:44:39.344Z,99962.06
2022-11-21T21:47:11.230Z,99962.34
2022-11-21T21:49:39.357Z,99964.93
2022-11-21T21:52:07.886Z,99963.55
2022-11-21T21:54:36.195Z,99959.13
2022-11-21T21:57:04.495Z,99954.19
2022-11-21T21:59:35.947Z,99949.81
2022-11-21T22:02:04.645Z,99943.10
2022-11-21T22:04:34.086Z,99939.48
2022-11-21T22:07:05.541Z,99933.80
2022-11-21T22:09:34.229Z,99926.55
2022-11-21T22:12:02.721Z,99926.55
2022-11-21T22:14:31.936Z,99927.86
2022-11-21T22:17:00.342Z,99932.50
2022-11-21T22:19:29.654Z,99940.89
2022-11-21T22:21:58.065Z,99935.20
2022-11-21T22:24:28.346Z,99937.17
2022-11-21T22:26:56.624Z,99942.37
2022-11-21T22:29:24.827Z,99944.08
2022-11-21T22:31:53.411Z,99941.95
2022-11-21T22:34:22.402Z,99936.81
2022-11-21T22:36:50.367Z,99943.71
2022-11-21T22:39:18.898Z,99945.95
2022-11-21T22:41:47.037Z,99953.17
2022-11-21T22:44:15.882Z,99957.67
2022-11-21T22:46:44.036Z,99954.76
2022-11-21T22:49:12.108Z,99959.85
2022-11-21T22:51:40.144Z,99967.52
2022-11-21T22:54:07.995Z,99971.09
2022-11-21T22:56:35.757Z,99975.52
2022-11-21T22:59:03.494Z,99976.58
2022-11-21T23:01:33.328Z,99984.87
2022-11-21T23:04:01.572Z,99995.08
2022-11-21T23:06:29.877Z,99995.09
2022-11-21T23:08:58.038Z,99995.70
2022-11-21T23:11:28.422Z,100001.31
2022-11-21T23:13:56.828Z,100005.08
2022-11-21T23:16:26.052Z,100011.31
2022-11-21T23:18:55.533Z,100012.65
2022-11-21T23:21:23.742Z,100005.52
2022-11-21T23:23:51.865Z,100000.85
2022-11-21T23:26:20.392Z,100007.27
2022-11-21T23:28:48.519Z,100005.16
2022-11-21T23:31:17.187Z,100008.89
2022-11-21T23:33:45.476Z,100022.16
2022-11-21T23:36:13.409Z,100037.08
2022-11-21T23:38:41.384Z,100038.59
2022-11-21T23:41:09.216Z,100031.48
2022-11-21T23:43:36.998Z,100029.80
2022-11-21T23:46:04.772Z,100034.55
2022-11-21T23:48:35.505Z,100029.21
2022-11-21T23:51:03.246Z,100018.47
2022-11-21T23:53:33.352Z,100010.69
2022-11-21T23:56:01.237Z,100007.45
2022-11-21T23:58:28.987Z,100011.18
